Latest Coastal Weather Observations for Moorabbin Airport

IDV60701

Issued at 2:21 pm EDT Wednesday 1 April 2015 (issued every 10 minutes, with the page automatically refreshed every 10 minutes)

About coastal observations | Map of coastal stations | Coastal observations for VIC | Marine services | Other Formats
Station Details ID: 086077 Name: MOORABBIN AIRPORT Lat: -37.98 Lon: 145.10 Height: 12.1 m
Data from the previous 72 hours. | See also: Recent months at Moorabbin Airport
Date/Time
EDT
Temp

°C
Wind Pressure Rain
since 9am
mm
Weather Cloud Vis
km
Sea
Height
m
Swell
Dir
 
Speed
knots
Gust
knots
hPa Trend Height
m
Period
s
Dir
01/02:00pm 28.4 NNW 19 29 1014.1 - 0.0 - - 10 - - - -
01/01:47pm 29.0 NNW 17 29 1014.3 - 0.0 - - 10 - - - -
01/01:30pm 29.0 NNW 19 25 1014.8 - 0.0 - - 10 - - - -
01/01:00pm 27.3 N 16 21 1015.1 - 0.0 - - 10 - - - -
01/12:30pm 27.5 N 16 20 1015.9 - 0.0 - - 10 - - - -
01/12:00pm 25.7 N 15 21 1016.6 - 0.0 - - 10 - - - -
01/11:30am 24.4 N 13 18 1017.3 - 0.0 - - 10 - - - -
01/11:00am 23.7 N 14 19 1017.6 - 0.0 - - 10 - - - -
01/10:30am 23.2 N 13 18 1018.1 - 0.0 - - 10 - - - -
01/10:00am 22.6 N 12 18 1018.4 - 0.0 - - 10 - - - -
01/09:30am 22.2 N 12 15 1018.7 - 0.0 - - 10 - - - -
01/09:00am 22.6 N 12 17 1018.8 - 0.0 - - 10 - - - -
01/08:30am 20.5 N 10 16 1018.8 - 0.0 - - 10 - - - -
01/08:00am 19.0 NNE 9 12 1018.6 - 0.0 - - 10 - - - -
01/07:30am 18.4 N 11 13 1018.6 - 0.0 - - 10 - - - -
01/07:00am 15.5 N 8 9 1018.6 - 0.0 - - 10 - - - -
01/06:30am 14.3 N 5 8 1018.6 - 0.0 - - 10 - - - -
01/06:00am 12.2 CALM 0 0 1018.5 - 0.0 - - 10 - - - -
01/05:30am 12.7 N 2 5 1018.6 - 0.0 - - 10 - - - -
01/05:00am 12.7 CALM 0 0 1018.7 - 0.0 - - 10 - - - -
01/04:30am 12.9 CALM 0 0 1018.9 - 0.0 - - 10 - - - -
01/04:00am 12.8 CALM 0 0 1019.3 - 0.0 - - 10 - - - -
01/03:30am 13.4 CALM 0 0 1019.6 - 0.0 - - 10 - - - -
01/03:00am 13.5 CALM 0 0 1019.9 - 0.0 - - 10 - - - -
01/02:30am 14.8 NNW 3 4 1020.4 - 0.0 - - 10 - - - -
01/02:00am 15.3 N 5 5 1020.8 - 0.0 - - 10 - - - -
01/01:30am 14.6 N 5 6 1021.0 - 0.0 - - 10 - - - -
01/01:00am 14.4 N 3 5 1021.2 - 0.0 - - 10 - - - -
01/12:30am 14.6 CALM 0 0 1021.7 - 0.0 - - 10 - - - -
01/12:00am 15.8 CALM 0 0 1022.0 - 0.0 - - 10 - - - -
 
Date/Time
EDT
Temp

°C
Wind Pressure Rain
since 9am
mm
Weather Cloud Vis
km
Sea
Height
m
Swell
Dir
 
Speed
knots
Gust
knots
hPa Trend Height
m
Period
s
Dir
31/11:30pm 16.2 NE 4 5 1021.8 - 0.0 - - 10 - - - -
31/11:00pm 16.0 NE 4 5 1021.9 - 0.0 - - 10 - - - -
31/10:30pm 16.2 NNE 4 4 1021.9 - 0.0 - - 10 - - - -
31/10:00pm 16.4 SE 4 5 1022.2 - 0.0 - - 10 - - - -
31/09:30pm 16.6 ESE 6 7 1022.4 - 0.0 - - 10 - - - -
31/09:00pm 16.7 ESE 5 6 1022.2 - 0.0 - - 10 - - - -
31/08:30pm 17.5 ESE 7 8 1022.0 - 0.0 - - 10 - - - -
31/08:00pm 18.5 SE 8 11 1021.8 - 0.0 - - 10 - - - -
31/07:30pm 19.8 SE 10 14 1021.5 - 0.0 - - 10 - - - -
31/07:00pm 21.3 SE 11 14 1021.4 - 0.0 - - 10 - - - -
31/06:30pm 22.8 SSE 12 15 1021.3 - 0.0 - - 10 - - - -
31/06:00pm 23.3 S 8 10 1021.2 - 0.0 - - 10 - - - -
31/05:30pm 23.7 SSW 8 10 1021.3 - 0.0 - - 10 - - - -
31/05:00pm 23.8 SSW 8 10 1021.4 - 0.0 - - 10 - - - -
31/04:30pm 23.5 SSW 9 11 1021.7 - 0.0 - - 10 - - - -
31/04:00pm 23.3 SSW 8 10 1022.0 - 0.0 - - 10 - - - -
31/03:30pm 23.2 SSW 8 11 1022.4 - 0.0 - - 10 - - - -
31/03:00pm 22.3 SSW 9 11 1022.6 - 0.0 - - 9 - - - -
31/02:30pm 22.3 SSW 7 10 1022.9 - 0.0 - - 9 - - - -
31/02:00pm 22.3 SW 7 9 1023.4 - 0.0 - - 10 - - - -
31/01:30pm 23.0 SW 6 8 1023.9 - 0.0 - - 10 - - - -
31/01:00pm 21.3 SW 5 7 1024.5 - 0.0 - - 10 - - - -
31/12:30pm 20.6 SSW 5 9 1025.0 - 0.0 - - 10 - - - -
31/12:00pm 21.0 E 5 8 1025.6 - 0.0 - - 10 - - - -
31/11:30am 19.5 WNW 3 4 1026.2 - 0.0 - - 10 - - - -
31/11:00am 18.0 SSW 4 6 1026.9 - 0.0 - - 10 - - - -
31/10:30am 17.6 W 3 5 1027.1 - 0.0 - - 10 - - - -
31/10:00am 16.5 NNW 3 5 1027.0 - 0.0 - - 10 - - - -
31/09:30am 15.2 N 3 4 1026.9 - 0.0 - - 10 - - - -
31/09:00am 13.2 N 3 4 1026.7 - 0.0 - - 10 - - - -
31/08:30am 11.6 N 3 4 1026.5 - 0.0 - - 10 - - - -
31/08:00am 10.2 NNE 3 5 1026.3 - 0.0 - - - - - - -
31/07:30am 9.6 CALM 0 0 1026.2 - 0.0 - - 10 - - - -
31/07:00am 9.9 CALM 0 0 1025.7 - 0.0 - - 10 - - - -
31/06:30am 10.2 CALM 0 0 1025.5 - 0.0 - - - - - - -
31/06:00am 9.3 CALM 0 0 1025.4 - 0.0 - - 9 - - - -
31/05:33am 10.2 CALM 0 0 1025.3 - 0.0 - Partly cloudy 10 - - - -
31/05:30am 10.2 CALM 0 0 1025.3 - 0.0 - Partly cloudy 10 - - - -
31/05:09am 9.6 CALM 0 0 1025.1 - 0.0 - - 4 - - - -
31/05:00am 9.7 CALM 0 0 1025.1 - 0.0 - - 10 - - - -
31/04:30am 10.4 CALM 0 0 1025.2 - 0.0 - - 10 - - - -
31/04:00am 10.6 CALM 0 0 1025.4 - 0.0 - - 10 - - - -
31/03:30am 11.1 CALM 0 0 1025.5 - 0.0 - - 10 - - - -
31/03:00am 11.6 CALM 0 0 1025.7 - 0.0 - - - - - - -
31/02:30am 11.7 CALM 0 0 1025.8 - 0.0 - - 10 - - - -
31/02:00am 12.1 CALM 0 0 1025.9 - 0.0 - - 10 - - - -
31/01:30am 12.5 CALM 0 0 1026.0 - 0.0 - - 10 - - - -
31/01:00am 13.0 E 3 3 1026.1 - 0.0 - - 10 - - - -
31/12:30am 12.9 ESE 3 3 1026.1 - 0.0 - - 10 - - - -
31/12:00am 13.5 ESE 2 4 1026.3 - 0.0 - - 10 - - - -
 
Date/Time
EDT
Temp

°C
Wind Pressure Rain
since 9am
mm
Weather Cloud Vis
km
Sea
Height
m
Swell
Dir
 
Speed
knots
Gust
knots
hPa Trend Height
m
Period
s
Dir
30/11:30pm 14.0 SSE 5 6 1026.4 - 0.0 - - 10 - - - -
30/11:00pm 14.4 SSE 4 5 1026.6 - 0.0 - - 10 - - - -
30/10:30pm 14.8 SSE 4 5 1026.5 - 0.0 - - 10 - - - -
30/10:00pm 15.1 SSE 5 5 1026.4 - 0.0 - - 10 - - - -
30/09:30pm 15.4 SSE 5 6 1026.3 - 0.0 - - 10 - - - -
30/09:00pm 16.1 SE 6 7 1026.1 - 0.0 - - 10 - - - -
30/08:30pm 16.7 SE 6 8 1025.8 - 0.0 - - 10 - - - -
30/08:00pm 17.7 SE 10 12 1025.3 - 0.0 - - 10 - - - -
30/07:30pm 18.3 SE 10 12 1024.9 - 0.0 - - 10 - - - -
30/07:00pm 19.8 SE 9 12 1024.6 - 0.0 - - 10 - - - -
30/06:30pm 20.2 SSW 9 12 1024.2 - 0.0 - - 10 - - - -
30/06:00pm 20.9 SSW 7 9 1023.9 - 0.0 - - 10 - - - -
30/05:30pm 21.2 SSW 8 11 1023.5 - 0.0 - - 10 - - - -
30/05:00pm 21.5 SSW 9 12 1023.4 - 0.0 - - 10 - - - -
30/04:30pm 21.2 S 8 10 1023.3 - 0.0 - - 10 - - - -
30/04:00pm 21.9 SSW 8 11 1023.3 - 0.0 - - 10 - - - -
30/03:30pm 21.3 SSW 8 11 1023.6 - 0.0 - - 10 - - - -
30/03:00pm 21.1 S 8 11 1023.8 - 0.0 - - 10 - - - -
30/02:30pm 20.8 SSW 9 10 1024.0 - 0.0 - - 10 - - - -
30/02:00pm 19.8 SW 12 15 1024.2 - 0.0 - - 10 - - - -
30/01:30pm 19.8 SW 9 12 1024.3 - 0.0 - - 10 - - - -
30/01:00pm 18.8 SW 9 13 1024.5 - 0.0 - - 10 - - - -
30/12:30pm 19.2 SW 9 11 1024.6 - 0.0 - - 10 - - - -
30/12:00pm 20.7 S 6 11 1024.6 - 0.0 - - 10 - - - -
30/11:30am 20.2 W 4 6 1024.9 - 0.0 - - 10 - - - -
30/11:00am 18.5 W 3 5 1025.1 - 0.0 - - 10 - - - -
30/10:30am 18.3 WSW 3 7 1025.1 - 0.0 - - 10 - - - -
30/10:00am 17.0 N 4 5 1024.7 - 0.0 - - 10 - - - -
30/09:30am 15.4 N 4 5 1024.6 - 0.0 - - 10 - - - -
30/09:00am 13.9 N 5 6 1024.4 - 0.0 - - 10 - - - -
30/08:30am 11.9 NW 4 5 1024.3 - 0.0 - - 10 - - - -
30/08:00am 9.6 CALM 0 0 1024.1 - 0.0 - - 10 - - - -
30/07:30am 9.1 CALM 0 0 1023.7 - 0.0 - - 10 - - - -
30/07:00am 9.4 CALM 0 0 1023.3 - 0.0 - - 10 - - - -
30/06:30am 10.4 NNE 3 3 1022.8 - 0.0 - - 10 - - - -
30/06:00am 10.5 NNE 5 5 1022.7 - 0.0 - - 10 - - - -
30/05:30am 10.3 N 2 3 1022.8 - 0.0 - - 10 - - - -
30/05:00am 10.4 N 2 3 1022.7 - 0.0 - - 10 - - - -
30/04:30am 11.3 N 3 4 1022.6 - 0.0 - - 10 - - - -
30/04:00am 11.0 N 5 6 1022.7 - 0.0 - - 10 - - - -
30/03:30am 10.2 NNW 2 5 1023.0 - 0.0 - - 10 - - - -
30/03:00am 10.7 CALM 0 0 1023.1 - 0.0 - - 10 - - - -
30/02:30am 10.5 CALM 0 0 1023.3 - 0.0 - - 10 - - - -
30/02:00am 11.0 CALM 0 0 1023.3 - 0.0 - - 10 - - - -
30/01:30am 11.1 CALM 0 0 1023.4 - 0.0 - - 10 - - - -
30/01:00am 11.9 NNE 1 3 1023.6 - 0.0 - - 10 - - - -
30/12:30am 12.8 NE 3 3 1023.7 - 0.0 - - 10 - - - -
30/12:00am 12.9 CALM 0 0 1023.8 - 0.0 - - 10 - - - -
 
Date/Time
EDT
Temp

°C
Wind Pressure Rain
since 9am
mm
Weather Cloud Vis
km
Sea
Height
m
Swell
Dir
 
Speed
knots
Gust
knots
hPa Trend Height
m
Period
s
Dir
29/11:30pm 12.9 CALM 0 0 1024.0 - 0.0 - - 10 - - - -
29/11:00pm 13.5 E 3 4 1023.9 - 0.0 - - 10 - - - -
29/10:30pm 14.3 SE 3 4 1024.0 - 0.0 - - 10 - - - -
29/10:00pm 13.7 ESE 6 6 1023.9 - 0.0 - - 10 - - - -
29/09:30pm 14.2 SE 6 7 1023.7 - 0.0 - - 10 - - - -
29/09:00pm 14.9 SE 6 7 1023.3 - 0.0 - - 10 - - - -
29/08:30pm 15.8 SE 7 9 1022.9 - 0.0 - - 10 - - - -
29/08:00pm 16.7 SE 8 11 1022.4 - 0.0 - - 10 - - - -
29/07:30pm 17.8 SE 10 12 1021.9 - 0.0 - - 10 - - - -
29/07:00pm 18.9 SE 9 13 1021.3 - 0.0 - - 10 - - - -
29/06:30pm 20.2 SSW 8 11 1020.9 - 0.0 - - 10 - - - -
29/06:00pm 20.7 S 7 9 1020.6 - 0.0 - - 10 - - - -
29/05:30pm 20.7 S 9 11 1020.4 - 0.0 - - 10 - - - -
29/05:00pm 20.6 SSW 8 11 1020.4 - 0.0 - - 10 - - - -
29/04:30pm 20.9 SSW 9 11 1020.4 - 0.0 - - 10 - - - -
29/04:00pm 21.0 S 10 13 1020.7 - 0.0 - - 10 - - - -
29/03:30pm 20.6 SSW 9 11 1020.8 - 0.0 - - 10 - - - -
29/03:00pm 20.5 SW 10 13 1021.2 - 0.0 - - 10 - - - -
29/02:30pm 21.4 SW 10 13 1021.3 - 0.0 - - 10 - - - -

Other Formats:

Comma delimited format used in spreadsheet applications
http://www.bom.gov.au/fwo/IDV60701/IDV60701.94870.axf

JavaScript Object Notation format (JSON) in row-major order
http://www.bom.gov.au/fwo/IDV60701/IDV60701.94870.json